createdAt,value
2018-01-01T00:00:17.995Z,9.10
2018-01-01T00:02:49.880Z,8.90
2018-01-01T00:05:21.760Z,8.80
2018-01-01T00:07:54.398Z,8.70
2018-01-01T00:10:26.313Z,8.70
2018-01-01T00:12:58.175Z,8.70
2018-01-01T00:15:30.081Z,8.70
2018-01-01T00:18:02.404Z,8.60
2018-01-01T00:20:35.043Z,8.60
2018-01-01T00:23:06.976Z,8.50
2018-01-01T00:25:38.882Z,8.60
2018-01-01T00:28:11.539Z,8.60
2018-01-01T00:30:43.419Z,8.50
2018-01-01T00:33:16.058Z,8.60
2018-01-01T00:35:48.018Z,8.60
2018-01-01T00:38:19.859Z,8.60
2018-01-01T00:40:51.759Z,8.60
2018-01-01T00:43:23.646Z,8.60
2018-01-01T00:45:56.307Z,8.60
2018-01-01T00:48:28.179Z,8.50
2018-01-01T00:51:00.834Z,8.60
2018-01-01T00:53:33.467Z,8.60
2018-01-01T00:56:05.422Z,8.60
2018-01-01T00:58:37.290Z,8.60
2018-01-01T01:01:09.239Z,8.70
2018-01-01T01:03:41.107Z,8.70
2018-01-01T01:06:13.003Z,8.80
2018-01-01T01:08:44.871Z,8.80
2018-01-01T01:11:16.787Z,8.80
2018-01-01T01:13:48.730Z,8.90
2018-01-01T01:16:21.491Z,9.00
2018-01-01T01:18:54.143Z,9.10
2018-01-01T01:21:26.020Z,9.10
2018-01-01T01:23:57.907Z,9.10
2018-01-01T01:26:29.794Z,9.00
2018-01-01T01:29:01.658Z,8.90
2018-01-01T01:31:33.543Z,8.70
2018-01-01T01:34:05.417Z,8.60
2018-01-01T01:36:37.347Z,8.50
2018-01-01T01:39:09.214Z,8.40
2018-01-01T01:41:41.112Z,8.30
2018-01-01T01:44:13.918Z,8.10
2018-01-01T01:46:45.807Z,8.10
2018-01-01T01:49:17.691Z,8.10
2018-01-01T01:51:49.595Z,8.00
2018-01-01T01:54:21.498Z,8.00
2018-01-01T01:56:53.423Z,7.90
2018-01-01T01:59:25.307Z,7.80
2018-01-01T02:01:57.202Z,7.80
2018-01-01T02:04:29.399Z,7.70
2018-01-01T02:07:01.328Z,7.70
2018-01-01T02:09:33.190Z,7.60
2018-01-01T02:12:05.116Z,7.60
2018-01-01T02:14:36.978Z,7.60
2018-01-01T02:17:08.859Z,7.60
2018-01-01T02:19:40.731Z,7.60
2018-01-01T02:22:12.623Z,7.70
2018-01-01T02:24:44.499Z,7.70
2018-01-01T02:27:16.413Z,7.70
2018-01-01T02:29:48.303Z,7.80
2018-01-01T02:32:31.890Z,7.90
2018-01-01T02:35:03.769Z,7.90
2018-01-01T02:37:35.676Z,8.10
2018-01-01T02:40:07.539Z,8.10
2018-01-01T02:42:39.431Z,8.20
2018-01-01T02:45:11.311Z,8.30
2018-01-01T02:47:43.198Z,8.30
